Time;durP1;ratioP1;P1;durP2;ratioP2;P2;SDS_P1;SDS_P2;PMS_P1;PMS_P2;Temp;Humidity;BMP_temperature;BMP_pressure;BME280_temperature;BME280_humidity;BME280_pressure;Samples;Min_cycle;Max_cycle;Signal;HPM_P1;HPM_P2
2023/07/08 00:02:20;;;;;;;3.00;1.63;;;19.20;99.90;;;;;;5085861;28;20109;-69
2023/07/08 00:04:45;;;;;;;4.57;1.83;;;19.10;99.90;;;;;;5091834;28;20330;-65
2023/07/08 00:07:15;;;;;;;2.07;1.50;;;19.10;99.90;;;;;;5096249;28;20032;-65
2023/07/08 00:09:41;;;;;;;3.95;2.05;;;19.10;99.90;;;;;;5091634;28;20394;-65
2023/07/08 00:12:11;;;;;;;2.40;1.70;;;19.10;99.90;;;;;;5089471;28;20095;-65
2023/07/08 00:14:37;;;;;;;5.60;2.00;;;19.10;99.90;;;;;;5099948;28;20043;-64
2023/07/08 00:17:04;;;;;;;4.40;2.17;;;19.10;99.90;;;;;;5114347;28;20020;-65
2023/07/08 00:19:31;;;;;;;3.13;2.08;;;19.00;99.90;;;;;;5104329;27;20024;-67
2023/07/08 00:21:56;;;;;;;3.10;2.10;;;19.00;99.90;;;;;;5116816;28;20461;-65
2023/07/08 00:24:22;;;;;;;4.23;2.33;;;19.00;99.90;;;;;;5115626;28;20031;-65
2023/07/08 00:26:48;;;;;;;3.67;2.37;;;19.10;99.90;;;;;;5115324;28;20391;-65
2023/07/08 00:29:16;;;;;;;6.05;2.85;;;19.10;99.90;;;;;;5104374;28;20036;-65
2023/07/08 00:31:42;;;;;;;7.50;2.60;;;19.10;99.90;;;;;;5113460;28;20026;-65
2023/07/08 00:34:08;;;;;;;4.38;2.15;;;19.10;99.90;;;;;;5115649;28;20020;-65
2023/07/08 00:36:35;;;;;;;5.47;2.87;;;19.10;99.90;;;;;;5115707;28;20074;-65
2023/07/08 00:39:01;;;;;;;5.38;2.80;;;19.10;99.90;;;;;;5115569;28;20031;-65
2023/07/08 00:41:39;;;;;;;3.53;2.50;;;19.10;99.90;;;;;;5112213;28;20084;-65
2023/07/08 00:44:07;;;;;;;5.90;2.22;;;19.00;99.90;;;;;;5109963;28;20074;-65
2023/07/08 00:46:48;;;;;;;5.70;2.50;;;19.00;99.90;;;;;;5111113;28;20027;-65
2023/07/08 00:49:23;;;;;;;5.05;2.00;;;18.90;99.90;;;;;;5107136;28;20352;-65
2023/07/08 00:51:50;;;;;;;4.90;2.85;;;18.90;99.90;;;;;;5114693;27;20028;-65
2023/07/08 00:54:18;;;;;;;6.28;2.33;;;18.80;99.90;;;;;;5116316;28;20028;-65
2023/07/08 00:56:58;;;;;;;5.07;2.40;;;18.80;99.90;;;;;;5114004;28;20028;-65
2023/07/08 00:59:23;;;;;;;4.78;2.35;;;18.70;99.90;;;;;;5103258;28;20034;-65
2023/07/08 01:01:50;;;;;;;4.30;2.50;;;18.70;99.90;;;;;;5107848;28;20107;-65
2023/07/08 01:04:25;;;;;;;4.03;2.65;;;18.70;99.90;;;;;;5113369;28;20034;-86
2023/07/08 01:06:57;;;;;;;2.97;2.33;;;18.60;99.90;;;;;;5115075;28;20488;-66
2023/07/08 01:09:41;;;;;;;7.13;3.25;;;18.60;99.90;;;;;;5113472;28;20031;-65
2023/07/08 01:12:11;;;;;;;4.55;2.72;;;18.60;99.90;;;;;;5115034;28;20020;-65
2023/07/08 01:14:38;;;;;;;5.85;2.85;;;18.50;99.90;;;;;;5113184;28;20123;-65
2023/07/08 01:17:04;;;;;;;6.25;2.67;;;18.50;99.90;;;;;;5115158;28;20349;-83
2023/07/08 01:19:33;;;;;;;4.90;2.77;;;18.50;99.90;;;;;;5113804;28;20034;-65
2023/07/08 01:22:06;;;;;;;3.95;2.45;;;18.50;99.90;;;;;;5089399;28;20032;-65
2023/07/08 01:24:35;;;;;;;2.90;2.00;;;18.50;99.90;;;;;;5109922;28;20024;-85
2023/07/08 01:27:03;;;;;;;4.93;2.50;;;18.40;99.90;;;;;;5115691;28;20023;-65
2023/07/08 01:29:29;;;;;;;5.72;3.08;;;18.40;99.90;;;;;;5102258;28;20020;-65
2023/07/08 01:31:56;;;;;;;5.88;2.85;;;18.40;99.90;;;;;;5114546;28;20111;-65
2023/07/08 01:34:22;;;;;;;7.03;2.92;;;18.40;99.90;;;;;;5103307;28;20020;-65
2023/07/08 01:36:54;;;;;;;7.85;2.72;;;18.40;99.90;;;;;;5112494;28;20084;-65
2023/07/08 01:39:22;;;;;;;5.50;2.70;;;18.30;99.90;;;;;;5094230;28;20123;-65
2023/07/08 01:41:48;;;;;;;4.00;2.60;;;18.30;99.90;;;;;;5112195;28;20417;-65
2023/07/08 01:44:35;;;;;;;3.38;2.22;;;18.30;99.90;;;;;;5115470;28;20023;-65
2023/07/08 01:47:15;;;;;;;2.50;2.03;;;18.30;99.90;;;;;;5111706;28;20027;-66
2023/07/08 01:49:43;;;;;;;4.20;2.38;;;18.20;99.90;;;;;;5114502;28;20023;-65
2023/07/08 01:52:10;;;;;;;3.97;2.25;;;18.20;99.90;;;;;;5113883;28;20008;-86
2023/07/08 01:54:36;;;;;;;4.68;2.55;;;18.20;99.90;;;;;;5114749;28;20023;-65
2023/07/08 01:57:02;;;;;;;6.97;2.70;;;18.20;99.90;;;;;;5113052;28;20019;-64
2023/07/08 01:59:28;;;;;;;5.70;2.17;;;18.20;99.90;;;;;;5114527;28;20040;-65
2023/07/08 02:01:55;;;;;;;4.35;2.45;;;18.10;99.90;;;;;;5112736;28;20114;-87
2023/07/08 02:04:21;;;;;;;2.80;2.03;;;18.10;99.90;;;;;;5114711;28;20444;-65
2023/07/08 02:07:00;;;;;;;3.47;2.00;;;18.10;99.90;;;;;;5113691;28;20052;-65
2023/07/08 02:09:26;;;;;;;3.50;2.42;;;18.10;99.90;;;;;;5101368;28;20166;-65
2023/07/08 02:11:53;;;;;;;4.40;2.13;;;18.10;99.90;;;;;;5114471;28;20039;-66
2023/07/08 02:14:19;;;;;;;;;;;18.10;99.90;;;;;;5113944;28;20334;-65
2023/07/08 02:16:47;;;;;;;4.45;2.00;;;18.10;99.90;;;;;;5113858;28;19912;-65
2023/07/08 02:19:13;;;;;;;4.03;2.47;;;18.00;99.90;;;;;;5094319;28;20035;-65
2023/07/08 02:21:39;;;;;;;3.67;1.92;;;18.00;99.90;;;;;;5106632;28;20311;-87
2023/07/08 02:24:06;;;;;;;3.97;2.30;;;18.00;99.90;;;;;;5106870;28;20401;-65
2023/07/08 02:26:32;;;;;;;;;;;18.00;99.90;;;;;;5105988;28;20027;-65
2023/07/08 02:29:03;;;;;;;5.30;2.45;;;18.00;99.90;;;;;;5114539;28;19907;-65
2023/07/08 02:31:28;;;;;;;2.75;1.98;;;18.00;99.90;;;;;;5095050;28;20036;-65
2023/07/08 02:33:54;;;;;;;6.23;2.27;;;18.00;99.90;;;;;;5116367;28;20027;-65
2023/07/08 02:36:20;;;;;;;3.33;2.00;;;17.90;99.90;;;;;;5118662;28;20020;-65
2023/07/08 02:38:46;;;;;;;2.15;1.88;;;17.90;99.90;;;;;;5119073;28;20023;-65
2023/07/08 02:41:11;;;;;;;7.17;2.20;;;17.90;99.90;;;;;;5099232;28;20390;-66
2023/07/08 02:43:38;;;;;;;3.63;2.30;;;17.90;99.90;;;;;;5118571;28;20036;-65
2023/07/08 02:46:04;;;;;;;3.35;2.35;;;17.90;99.90;;;;;;5113751;28;20468;-65
2023/07/08 02:48:30;;;;;;;2.67;1.85;;;17.90;99.90;;;;;;5108747;28;20031;-65
2023/07/08 02:51:04;;;;;;;5.10;2.10;;;17.90;99.90;;;;;;5118171;28;20028;-65
2023/07/08 02:53:30;;;;;;;5.10;2.00;;;17.90;99.90;;;;;;5109265;28;20111;-65
2023/07/08 02:55:57;;;;;;;3.50;2.10;;;17.80;99.90;;;;;;5111413;28;20411;-65
2023/07/08 02:58:23;;;;;;;4.35;1.98;;;17.80;99.90;;;;;;5116026;28;20043;-64
2023/07/08 03:00:53;;;;;;;2.55;2.15;;;17.80;99.90;;;;;;5112228;28;20035;-65
2023/07/08 03:03:18;;;;;;;3.08;2.47;;;17.70;99.90;;;;;;5105008;28;20035;-88
2023/07/08 03:05:52;;;;;;;4.50;2.37;;;17.70;99.90;;;;;;5113399;28;20027;-65
2023/07/08 03:08:18;;;;;;;3.00;1.85;;;17.70;99.90;;;;;;5115668;27;20030;-65
2023/07/08 03:10:48;;;;;;;3.28;2.25;;;17.70;99.90;;;;;;5108736;28;20024;-65
2023/07/08 03:13:14;;;;;;;3.92;2.28;;;17.70;99.90;;;;;;5095172;28;20093;-65
2023/07/08 03:15:39;;;;;;;4.10;1.77;;;17.70;99.90;;;;;;5097015;28;20426;-65
2023/07/08 03:18:07;;;;;;;3.13;2.30;;;17.70;99.90;;;;;;5091053;28;20032;-84
2023/07/08 03:20:36;;;;;;;4.78;2.35;;;17.70;99.90;;;;;;5096506;28;20024;-64
2023/07/08 03:23:02;;;;;;;2.83;1.83;;;17.60;99.90;;;;;;5094303;28;20028;-65
2023/07/08 03:25:28;;;;;;;4.17;2.27;;;17.70;99.90;;;;;;5096686;28;20504;-65
2023/07/08 03:27:55;;;;;;;4.10;2.40;;;17.70;99.90;;;;;;5096246;28;20289;-66
2023/07/08 03:30:21;;;;;;;3.58;2.53;;;17.60;99.90;;;;;;5097443;28;20058;-65
2023/07/08 03:32:46;;;;;;;7.33;3.00;;;17.60;99.90;;;;;;5097585;28;20012;-83
2023/07/08 03:35:12;;;;;;;3.50;2.30;;;17.60;99.90;;;;;;5095958;28;20016;-65
2023/07/08 03:37:38;;;;;;;3.30;2.17;;;17.60;99.90;;;;;;5081895;28;20402;-65
2023/07/08 03:40:05;;;;;;;4.77;2.27;;;17.60;99.90;;;;;;5090245;28;20024;-65
2023/07/08 03:42:30;;;;;;;3.70;2.17;;;17.50;99.90;;;;;;5096609;28;20669;-66
2023/07/08 03:44:56;;;;;;;3.47;2.37;;;17.60;99.90;;;;;;5096830;28;20036;-65
2023/07/08 03:47:22;;;;;;;3.40;1.97;;;17.50;99.90;;;;;;5097299;28;20020;-65
2023/07/08 03:49:48;;;;;;;4.53;2.28;;;17.60;99.90;;;;;;5087997;28;20265;-65
2023/07/08 03:52:17;;;;;;;3.90;2.30;;;17.50;99.90;;;;;;5086639;28;20055;-87
2023/07/08 03:54:42;;;;;;;3.25;2.13;;;17.50;99.90;;;;;;5097234;28;20012;-65
2023/07/08 03:57:08;;;;;;;3.20;2.37;;;17.50;99.90;;;;;;5096337;28;20081;-88
2023/07/08 03:59:34;;;;;;;2.67;2.17;;;17.50;99.90;;;;;;5093967;28;20052;-65
2023/07/08 04:01:59;;;;;;;3.03;2.10;;;17.60;99.90;;;;;;5095987;28;20032;-65
2023/07/08 04:04:25;;;;;;;5.33;2.80;;;17.50;99.90;;;;;;5095912;28;20024;-65
2023/07/08 04:06:51;;;;;;;4.47;2.10;;;17.50;99.90;;;;;;5087424;28;20434;-65
2023/07/08 04:09:17;;;;;;;3.42;2.10;;;17.60;99.90;;;;;;5082559;28;20019;-88
2023/07/08 04:11:43;;;;;;;2.57;2.20;;;17.60;99.90;;;;;;5093970;28;20028;-66
2023/07/08 04:14:09;;;;;;;4.93;2.57;;;17.60;99.90;;;;;;5095909;28;20436;-87
2023/07/08 04:16:57;;;;;;;;;;;17.60;99.90;;;;;;5116289;28;20026;-65
2023/07/08 04:19:23;;;;;;;4.78;2.92;;;17.50;99.90;;;;;;5116034;28;19904;-65
2023/07/08 04:21:49;;;;;;;4.35;2.05;;;17.50;99.90;;;;;;5105511;28;20384;-64
2023/07/08 04:24:17;;;;;;;2.38;1.80;;;17.60;99.90;;;;;;5109691;28;20088;-87
2023/07/08 04:26:46;;;;;;;2.15;1.70;;;17.60;99.90;;;;;;5101643;28;20444;-65
2023/07/08 04:29:18;;;;;;;3.65;2.33;;;17.60;99.90;;;;;;5116415;28;20024;-64
2023/07/08 04:31:44;;;;;;;3.00;2.10;;;17.60;99.90;;;;;;5115744;28;20362;-86
2023/07/08 04:34:10;;;;;;;3.50;2.28;;;17.60;99.90;;;;;;5110744;28;20081;-66
2023/07/08 04:36:36;;;;;;;8.07;2.30;;;17.60;99.90;;;;;;5117179;28;20043;-65
2023/07/08 04:39:06;;;;;;;3.97;2.28;;;17.70;99.90;;;;;;5116160;28;20019;-65
2023/07/08 04:41:32;;;;;;;2.90;2.20;;;17.60;99.90;;;;;;5115313;28;20429;-65
2023/07/08 04:44:01;;;;;;;4.30;2.40;;;17.70;99.90;;;;;;5114002;28;20032;-65
2023/07/08 04:46:40;;;;;;;3.88;2.40;;;17.80;99.90;;;;;;5116437;28;20280;-65
2023/07/08 04:49:07;;;;;;;3.42;2.42;;;17.80;99.90;;;;;;5101884;28;20028;-65
2023/07/08 04:51:33;;;;;;;3.47;2.13;;;17.80;99.90;;;;;;5116890;28;20287;-65
2023/07/08 04:53:59;;;;;;;3.97;2.15;;;17.80;99.90;;;;;;5112190;28;20092;-65
2023/07/08 04:56:41;;;;;;;3.37;2.57;;;17.90;99.90;;;;;;5104797;28;20368;-65
2023/07/08 04:59:17;;;;;;;3.85;2.10;;;17.90;99.90;;;;;;5099588;28;20031;-64
2023/07/08 05:01:44;;;;;;;3.78;2.30;;;17.90;99.90;;;;;;5105333;28;20076;-65
2023/07/08 05:04:13;;;;;;;;;;;17.90;99.90;;;;;;5107883;28;20050;-65
2023/07/08 05:06:39;;;;;;;4.20;2.45;;;18.00;99.90;;;;;;5098132;28;20384;-89
2023/07/08 05:09:05;;;;;;;6.90;2.10;;;18.00;99.90;;;;;;5115303;28;20107;-88
2023/07/08 05:11:32;;;;;;;3.40;2.30;;;18.10;99.90;;;;;;5115099;28;20032;-65
2023/07/08 05:13:58;;;;;;;2.63;2.03;;;18.10;99.90;;;;;;5113808;28;20162;-65
2023/07/08 05:16:24;;;;;;;3.67;2.17;;;18.10;99.90;;;;;;5115379;28;20019;-65
2023/07/08 05:18:50;;;;;;;4.17;2.43;;;18.20;99.90;;;;;;5116255;28;20434;-65
2023/07/08 05:21:18;;;;;;;10.02;2.67;;;18.20;99.90;;;;;;5114273;28;20092;-64
2023/07/08 05:23:44;;;;;;;5.93;2.50;;;18.30;99.90;;;;;;5115089;28;20024;-65
2023/07/08 05:26:11;;;;;;;3.78;2.42;;;18.30;99.90;;;;;;5115104;28;20309;-93
2023/07/08 05:28:36;;;;;;;4.55;2.40;;;18.30;99.90;;;;;;5098201;28;20109;-65
2023/07/08 05:31:02;;;;;;;3.50;2.27;;;18.40;99.90;;;;;;5114923;28;20410;-65
2023/07/08 05:33:30;;;;;;;3.70;2.20;;;18.40;99.90;;;;;;5113325;28;20030;-65
2023/07/08 05:35:56;;;;;;;2.38;2.05;;;18.50;99.90;;;;;;5094832;28;20444;-65
2023/07/08 05:38:23;;;;;;;4.18;2.60;;;18.50;99.90;;;;;;5115678;28;20027;-65
2023/07/08 05:40:55;;;;;;;5.55;2.33;;;18.50;99.90;;;;;;5114990;28;20023;-65
2023/07/08 05:43:21;;;;;;;3.78;2.40;;;18.60;99.90;;;;;;5103307;28;20024;-66
2023/07/08 05:45:47;;;;;;;2.47;2.28;;;18.60;99.90;;;;;;5098389;28;20051;-82
2023/07/08 05:48:16;;;;;;;4.13;2.20;;;18.70;99.90;;;;;;5114866;28;20111;-65
2023/07/08 05:50:42;;;;;;;4.93;2.22;;;18.70;99.90;;;;;;5092676;28;20308;-89
2023/07/08 05:53:14;;;;;;;4.82;2.30;;;18.80;99.90;;;;;;5106545;28;20039;-65
2023/07/08 05:55:42;;;;;;;4.28;2.22;;;18.70;99.90;;;;;;5109321;28;20055;-65
2023/07/08 05:58:10;;;;;;;6.85;2.40;;;18.80;99.90;;;;;;5115533;28;20090;-65
2023/07/08 06:00:35;;;;;;;3.58;2.22;;;18.80;99.90;;;;;;5115149;28;20077;-65
2023/07/08 06:03:01;;;;;;;4.80;2.50;;;18.90;99.90;;;;;;5107406;28;20019;-65
2023/07/08 06:05:27;;;;;;;2.47;1.67;;;18.90;99.90;;;;;;5114369;28;20368;-64
2023/07/08 06:07:52;;;;;;;4.50;2.43;;;19.00;99.90;;;;;;5114689;28;20015;-65
2023/07/08 06:10:18;;;;;;;3.57;2.20;;;19.00;99.90;;;;;;5111635;28;20022;-65
2023/07/08 06:12:44;;;;;;;6.20;1.83;;;19.10;99.90;;;;;;5092220;28;20027;-65
2023/07/08 06:15:12;;;;;;;3.30;2.27;;;19.10;99.90;;;;;;5107319;28;20040;-81
2023/07/08 06:17:37;;;;;;;5.65;2.47;;;19.20;99.90;;;;;;5106560;28;20063;-65
2023/07/08 06:20:04;;;;;;;3.00;1.90;;;19.30;99.90;;;;;;5111579;28;20060;-76
2023/07/08 06:22:29;;;;;;;10.20;1.98;;;19.30;99.90;;;;;;5121578;28;20031;-65
2023/07/08 06:24:55;;;;;;;3.67;2.20;;;19.40;99.90;;;;;;5111766;28;20032;-87
2023/07/08 06:27:21;;;;;;;4.50;2.40;;;19.40;99.90;;;;;;5111398;28;20038;-65
2023/07/08 06:29:46;;;;;;;8.97;2.93;;;19.40;99.90;;;;;;5115017;28;20051;-65
2023/07/08 06:32:12;;;;;;;4.23;2.37;;;19.50;99.90;;;;;;5110263;28;20027;-65
2023/07/08 06:34:38;;;;;;;3.50;2.35;;;19.50;99.90;;;;;;5104888;28;20028;-89
2023/07/08 06:37:04;;;;;;;3.40;2.03;;;19.60;99.90;;;;;;5114040;28;20043;-65
2023/07/08 06:39:30;;;;;;;3.70;1.90;;;19.60;99.90;;;;;;5106377;28;20035;-64
2023/07/08 06:41:55;;;;;;;2.57;2.23;;;19.60;99.90;;;;;;5108272;28;20346;-63
2023/07/08 06:44:21;;;;;;;3.60;2.23;;;19.70;99.90;;;;;;5094431;28;20095;-65
2023/07/08 06:46:47;;;;;;;2.88;1.88;;;19.80;99.90;;;;;;5106023;28;20349;-65
2023/07/08 06:49:13;;;;;;;3.10;1.93;;;19.90;99.90;;;;;;5113136;28;20102;-65
2023/07/08 06:51:39;;;;;;;3.70;2.37;;;20.00;99.90;;;;;;5114824;28;20028;-85
2023/07/08 06:54:10;;;;;;;;;;;20.00;99.90;;;;;;5113654;28;20055;-65
2023/07/08 06:56:38;;;;;;;4.32;2.30;;;20.10;99.90;;;;;;5114949;28;20210;-65
2023/07/08 06:59:05;;;;;;;4.72;2.13;;;20.10;99.90;;;;;;5113427;28;20034;-89
2023/07/08 07:01:31;;;;;;;3.53;1.80;;;20.20;99.90;;;;;;5114184;28;20034;-65
2023/07/08 07:03:56;;;;;;;5.83;1.87;;;20.20;99.90;;;;;;5101014;28;20111;-64
2023/07/08 07:06:22;;;;;;;4.63;2.40;;;20.30;99.90;;;;;;5113111;28;20084;-65
2023/07/08 07:08:48;;;;;;;4.20;1.97;;;20.40;99.90;;;;;;5114583;28;20310;-86
2023/07/08 07:11:14;;;;;;;3.25;2.28;;;20.40;99.90;;;;;;5109781;28;20040;-65
2023/07/08 07:13:40;;;;;;;3.33;2.30;;;20.50;99.90;;;;;;5104363;28;20071;-65
2023/07/08 07:16:06;;;;;;;3.83;2.03;;;20.60;99.90;;;;;;5111730;28;20051;-65
2023/07/08 07:18:32;;;;;;;2.58;1.90;;;20.70;99.90;;;;;;5111524;28;20062;-65
2023/07/08 07:20:59;;;;;;;3.95;1.90;;;20.70;99.90;;;;;;5103683;28;20047;-65
2023/07/08 07:23:25;;;;;;;3.83;2.30;;;20.80;99.90;;;;;;5117504;28;20060;-65
2023/07/08 07:25:51;;;;;;;4.65;2.28;;;20.90;99.90;;;;;;5118185;28;20047;-66
2023/07/08 07:28:18;;;;;;;3.60;2.35;;;20.90;99.90;;;;;;5117866;28;20051;-65
2023/07/08 07:30:45;;;;;;;3.33;2.22;;;21.00;99.90;;;;;;5117511;28;20019;-65
2023/07/08 07:33:11;;;;;;;;;;;21.10;99.90;;;;;;5106203;28;20081;-65
2023/07/08 07:35:43;;;;;;;3.17;1.92;;;21.20;99.90;;;;;;5115776;28;19903;-86
2023/07/08 07:38:09;;;;;;;6.90;2.47;;;21.30;99.90;;;;;;5117933;28;20122;-65
2023/07/08 07:40:34;;;;;;;6.57;2.47;;;21.30;99.90;;;;;;5117596;28;20310;-65
2023/07/08 07:43:01;;;;;;;2.30;2.03;;;21.40;99.90;;;;;;5108906;28;20024;-67
2023/07/08 07:45:27;;;;;;;2.75;2.22;;;21.50;99.90;;;;;;5112302;28;20705;-65
2023/07/08 07:47:52;;;;;;;4.70;2.17;;;21.60;99.90;;;;;;5117286;28;20084;-65
2023/07/08 07:50:18;;;;;;;3.97;2.33;;;21.70;99.90;;;;;;5117607;28;20019;-65
2023/07/08 07:52:45;;;;;;;2.53;1.95;;;21.80;99.90;;;;;;5103039;28;20042;-91
2023/07/08 07:55:10;;;;;;;2.92;2.22;;;21.90;99.90;;;;;;5106090;28;20031;-65
2023/07/08 07:57:36;;;;;;;2.73;2.03;;;22.00;99.90;;;;;;5110227;28;20028;-65
2023/07/08 08:00:03;;;;;;;5.05;2.83;;;22.20;99.90;;;;;;5097193;28;20020;-65
2023/07/08 08:02:29;;;;;;;7.05;2.17;;;22.30;99.90;;;;;;5097943;28;20055;-65
2023/07/08 08:04:55;;;;;;;4.13;2.97;;;22.40;99.90;;;;;;5110210;28;20028;-64
2023/07/08 08:07:20;;;;;;;4.75;2.55;;;22.50;99.90;;;;;;5110635;28;20110;-65
2023/07/08 08:09:46;;;;;;;5.73;2.70;;;22.60;99.90;;;;;;5116524;28;20023;-65
2023/07/08 08:12:12;;;;;;;3.60;2.67;;;22.60;99.90;;;;;;5110518;28;20267;-65
2023/07/08 08:14:38;;;;;;;5.10;2.55;;;22.70;99.90;;;;;;5115904;28;20391;-65
2023/07/08 08:17:04;;;;;;;7.90;2.08;;;22.70;99.90;;;;;;5116015;28;20402;-87
2023/07/08 08:19:31;;;;;;;3.35;2.33;;;22.90;99.90;;;;;;5116710;28;20100;-65
2023/07/08 08:21:57;;;;;;;5.57;2.53;;;22.90;99.90;;;;;;5114096;28;20032;-65
2023/07/08 08:24:22;;;;;;;3.08;1.98;;;23.00;99.90;;;;;;5117082;28;20031;-65
2023/07/08 08:26:48;;;;;;;3.15;2.70;;;23.10;99.90;;;;;;5115950;28;20028;-66
2023/07/08 08:29:14;;;;;;;5.38;2.40;;;23.10;99.90;;;;;;5116969;28;20095;-65
2023/07/08 08:31:40;;;;;;;3.88;2.17;;;23.20;99.90;;;;;;5116243;28;20024;-65
2023/07/08 08:34:06;;;;;;;3.17;2.20;;;23.30;99.90;;;;;;5116206;28;20042;-89
2023/07/08 08:36:31;;;;;;;5.07;2.60;;;23.40;99.90;;;;;;5098512;28;20470;-65
2023/07/08 08:38:57;;;;;;;4.37;2.57;;;23.30;99.90;;;;;;5102022;28;20024;-64
2023/07/08 08:41:32;;;;;;;8.00;2.70;;;23.50;99.90;;;;;;5116697;28;20027;-65
2023/07/08 08:43:59;;;;;;;3.55;2.03;;;23.60;99.90;;;;;;5115855;28;20020;-66
2023/07/08 08:47:04;;;;;;;3.95;2.70;;;23.70;99.90;;;;;;5116430;28;20023;-65
2023/07/08 08:49:35;;;;;;;3.90;2.05;;;23.90;99.90;;;;;;5109191;28;20036;-65
2023/07/08 08:52:01;;;;;;;2.97;2.00;;;24.20;99.90;;;;;;5096126;28;20080;-65
2023/07/08 08:54:28;;;;;;;4.10;2.00;;;24.30;99.90;;;;;;5110199;28;20016;-67
2023/07/08 08:57:24;;;;;;;22.50;2.60;;;24.40;99.90;;;;;;5107834;28;20533;-66
2023/07/08 08:59:58;;;;;;;3.28;2.13;;;24.50;99.90;;;;;;5103937;28;20032;-91
2023/07/08 09:02:34;;;;;;;2.80;2.10;;;24.80;99.90;;;;;;5101520;28;20024;-66
2023/07/08 09:05:11;;;;;;;4.43;2.60;;;25.10;99.90;;;;;;5105348;28;20024;-65
2023/07/08 09:08:19;;;;;;;4.22;2.33;;;25.20;99.90;;;;;;5111283;28;20088;-66
2023/07/08 09:11:20;;;;;;;4.70;2.22;;;25.10;99.90;;;;;;5091671;28;20115;-66
2023/07/08 09:13:46;;;;;;;4.35;2.03;;;25.40;99.90;;;;;;5088594;28;20043;-91
2023/07/08 09:16:17;;;;;;;6.18;3.13;;;25.50;99.90;;;;;;5097430;28;20462;-89
2023/07/08 09:18:52;;;;;;;3.92;2.60;;;25.60;99.90;;;;;;5115862;28;20034;-65
2023/07/08 09:21:27;;;;;;;3.97;2.60;;;25.50;99.90;;;;;;5101355;28;20024;-66
2023/07/08 09:24:00;;;;;;;6.65;3.35;;;25.50;99.90;;;;;;5106371;28;20079;-65
2023/07/08 09:26:28;;;;;;;3.55;2.38;;;25.70;99.90;;;;;;5112752;28;20317;-91
2023/07/08 09:28:54;;;;;;;6.07;2.53;;;26.00;99.90;;;;;;5093574;28;20038;-66
2023/07/08 09:31:27;;;;;;;4.85;2.58;;;26.10;99.90;;;;;;5111749;28;20400;-66
2023/07/08 09:34:06;;;;;;;6.07;2.10;;;26.00;99.90;;;;;;5111319;28;20114;-66
2023/07/08 09:36:32;;;;;;;4.55;2.75;;;26.00;99.90;;;;;;5085557;28;20024;-88
2023/07/08 09:39:01;;;;;;;4.05;2.33;;;26.20;99.90;;;;;;5111029;28;20038;-66
2023/07/08 09:41:35;;;;;;;3.75;2.20;;;26.10;99.90;;;;;;5110982;28;20043;-71
2023/07/08 09:44:28;;;;;;;5.50;2.78;;;26.20;99.90;;;;;;5112506;28;20059;-66
2023/07/08 09:46:56;;;;;;;6.07;2.55;;;26.40;99.90;;;;;;5109237;28;20118;-66
2023/07/08 09:49:36;;;;;;;3.30;2.08;;;26.50;99.90;;;;;;5125363;27;20027;-66
2023/07/08 09:52:04;;;;;;;5.70;2.33;;;26.70;99.90;;;;;;5101648;28;20035;-67
2023/07/08 09:54:34;;;;;;;5.15;2.83;;;26.80;99.90;;;;;;5114237;28;20020;-66
2023/07/08 09:57:02;;;;;;;4.13;2.63;;;26.80;99.90;;;;;;5114750;28;20032;-66
2023/07/08 09:59:42;;;;;;;3.60;2.40;;;26.80;99.90;;;;;;5111821;28;20031;-65
2023/07/08 10:02:30;;;;;;;4.35;3.20;;;26.90;99.90;;;;;;5107988;28;20024;-66
2023/07/08 10:05:00;;;;;;;4.30;2.88;;;26.90;99.90;;;;;;5102693;28;20031;-82
2023/07/08 10:07:30;;;;;;;5.50;2.72;;;26.80;99.90;;;;;;5109004;28;20028;-65
2023/07/08 10:09:58;;;;;;;4.47;3.03;;;26.70;99.90;;;;;;5104367;28;20016;-66
2023/07/08 10:12:25;;;;;;;8.38;3.03;;;26.70;99.90;;;;;;5094568;28;20051;-87
2023/07/08 10:14:53;;;;;;;;;;;26.60;99.90;;;;;;5106210;28;20071;-66
2023/07/08 10:17:21;;;;;;;4.70;2.47;;;26.60;99.90;;;;;;5082428;28;20222;-65
2023/07/08 10:19:46;;;;;;;5.70;3.28;;;26.50;99.90;;;;;;5091716;28;20050;-65
2023/07/08 10:22:30;;;;;;;5.20;3.55;;;26.60;99.90;;;;;;5076678;28;20060;-65
2023/07/08 10:25:31;;;;;;;4.07;2.65;;;26.70;99.90;;;;;;5079796;28;20032;-65
2023/07/08 10:28:10;;;;;;;6.80;3.20;;;26.70;99.90;;;;;;5065539;28;20045;-66
2023/07/08 10:30:50;;;;;;;4.78;2.95;;;26.80;99.90;;;;;;5093320;28;20326;-95
2023/07/08 10:33:34;;;;;;;7.07;3.30;;;26.90;99.90;;;;;;5077444;28;20028;-89
2023/07/08 10:36:18;;;;;;;7.32;3.22;;;27.00;99.90;;;;;;5074555;28;20031;-66
2023/07/08 10:38:58;;;;;;;5.00;2.97;;;27.10;99.90;;;;;;5089891;28;20024;-84
2023/07/08 10:41:45;;;;;;;5.00;2.70;;;27.30;99.90;;;;;;5094355;28;20028;-66
2023/07/08 10:44:25;;;;;;;3.80;2.80;;;27.30;99.90;;;;;;5061724;28;20024;-65
2023/07/08 10:46:51;;;;;;;4.85;2.80;;;27.30;99.90;;;;;;5081532;28;20354;-66
2023/07/08 10:49:49;;;;;;;7.43;3.37;;;27.40;99.90;;;;;;5092575;28;20017;-65
2023/07/08 10:52:52;;;;;;;5.47;3.00;;;27.50;99.90;;;;;;5093623;28;20793;-65
2023/07/08 10:55:58;;;;;;;4.90;2.80;;;27.50;99.90;;;;;;5086208;28;20406;-65
2023/07/08 10:58:53;;;;;;;6.05;3.13;;;27.60;99.90;;;;;;5077717;28;20423;-66
2023/07/08 11:01:36;;;;;;;4.82;3.20;;;27.70;99.90;;;;;;5096902;28;20067;-65
2023/07/08 11:04:15;;;;;;;4.47;2.88;;;27.80;99.90;;;;;;5096885;28;20116;-65
2023/07/08 11:07:13;;;;;;;5.88;3.17;;;27.80;99.90;;;;;;5086096;28;20036;-64
2023/07/08 11:09:53;;;;;;;5.82;3.63;;;27.80;99.90;;;;;;5083443;28;20070;-65
2023/07/08 11:12:34;;;;;;;4.72;3.03;;;28.00;99.90;;;;;;5098010;28;20020;-86
2023/07/08 11:15:16;;;;;;;3.80;2.75;;;27.90;99.90;;;;;;5084082;28;20101;-65
2023/07/08 11:18:16;;;;;;;6.45;3.30;;;27.90;99.90;;;;;;5067703;28;20111;-66
2023/07/08 11:21:04;;;;;;;6.18;3.25;;;28.00;99.90;;;;;;5097878;28;20225;-65
2023/07/08 11:23:36;;;;;;;4.80;3.03;;;28.00;99.90;;;;;;5083769;28;20020;-75
2023/07/08 11:26:21;;;;;;;4.43;3.20;;;28.10;99.90;;;;;;5068251;28;20037;-65
2023/07/08 11:28:49;;;;;;;5.57;3.40;;;28.20;99.90;;;;;;5095617;28;20020;-65
2023/07/08 11:31:15;;;;;;;7.32;3.45;;;28.30;99.90;;;;;;5097705;28;20051;-92
2023/07/08 11:33:42;;;;;;;5.20;3.53;;;28.40;99.90;;;;;;5100687;28;20020;-96
2023/07/08 11:36:10;;;;;;;5.43;3.30;;;28.60;99.90;;;;;;5093629;28;20323;-66
2023/07/08 11:38:47;;;;;;;5.25;3.42;;;28.70;99.90;;;;;;5083090;28;20031;-66
2023/07/08 11:41:16;;;;;;;4.47;3.17;;;28.80;99.90;;;;;;5097575;28;20433;-66
2023/07/08 11:43:46;;;;;;;5.70;3.45;;;29.30;99.20;;;;;;5095906;28;20352;-65
2023/07/08 11:46:19;;;;;;;6.32;3.58;;;29.70;99.90;;;;;;5077191;28;20033;-66
2023/07/08 11:48:48;;;;;;;6.63;3.22;;;29.70;99.90;;;;;;5091178;28;20099;-68
2023/07/08 11:51:23;;;;;;;7.68;3.53;;;29.90;99.90;;;;;;5097417;28;20069;-67
2023/07/08 11:54:29;;;;;;;5.78;3.42;;;29.90;98.90;;;;;;5097095;28;20070;-83
2023/07/08 11:57:03;;;;;;;5.30;3.40;;;30.20;99.20;;;;;;5093877;28;20381;-67
2023/07/08 11:59:32;;;;;;;5.90;3.60;;;30.10;99.00;;;;;;5082099;28;20027;-66
2023/07/08 12:02:10;;;;;;;5.80;3.05;;;30.20;98.10;;;;;;5097413;28;20024;-66
2023/07/08 12:04:59;;;;;;;6.20;3.67;;;30.20;96.50;;;;;;5081983;28;20027;-88
2023/07/08 12:07:41;;;;;;;7.75;3.60;;;30.30;98.50;;;;;;5096449;28;20024;-66
2023/07/08 12:10:22;;;;;;;5.97;3.15;;;30.70;98.20;;;;;;5088862;28;20024;-67
2023/07/08 12:12:48;;;;;;;5.22;3.28;;;30.70;98.00;;;;;;5077849;28;20051;-66
2023/07/08 12:15:28;;;;;;;6.57;3.30;;;30.90;96.20;;;;;;5096936;28;20040;-66
2023/07/08 12:17:56;;;;;;;6.78;3.63;;;31.20;96.70;;;;;;5113072;28;20028;-67
2023/07/08 12:20:26;;;;;;;6.75;3.33;;;30.90;96.70;;;;;;5108234;28;20031;-66
2023/07/08 12:22:52;;;;;;;5.70;3.45;;;30.90;98.00;;;;;;5098106;28;20373;-66
2023/07/08 12:25:21;;;;;;;5.60;3.50;;;30.90;97.40;;;;;;5109474;28;20028;-65
2023/07/08 12:27:47;;;;;;;6.63;3.13;;;30.90;96.30;;;;;;5109917;28;20295;-85
2023/07/08 12:30:17;;;;;;;;;;;30.80;97.70;;;;;;5100318;28;20024;-81
2023/07/08 12:32:43;;;;;;;7.38;3.90;;;30.80;96.80;;;;;;5110319;28;19911;-66
2023/07/08 12:35:31;;;;;;;5.18;3.47;;;30.90;97.80;;;;;;5101686;28;20322;-65
2023/07/08 12:38:01;;;;;;;7.28;3.80;;;30.80;98.10;;;;;;5117141;28;20295;-66
2023/07/08 12:40:28;;;;;;;12.10;3.92;;;30.60;96.80;;;;;;5116367;28;20053;-66
2023/07/08 12:42:56;;;;;;;10.93;3.95;;;30.80;97.20;;;;;;5107417;28;20024;-67
2023/07/08 12:45:25;;;;;;;6.40;3.45;;;31.20;95.30;;;;;;5110046;28;20027;-67
2023/07/08 12:47:52;;;;;;;7.80;3.85;;;31.20;96.20;;;;;;5116440;28;20108;-66
2023/07/08 12:50:17;;;;;;;6.15;3.88;;;31.20;95.50;;;;;;5097353;28;20032;-66
2023/07/08 12:52:47;;;;;;;7.00;3.78;;;31.20;95.50;;;;;;5116088;28;20463;-66
2023/07/08 12:55:15;;;;;;;5.28;3.33;;;31.50;93.40;;;;;;5115985;28;20032;-67
2023/07/08 12:57:45;;;;;;;7.10;3.63;;;31.70;95.20;;;;;;5115683;28;20080;-66
2023/07/08 13:00:27;;;;;;;5.70;3.55;;;31.90;96.50;;;;;;5111807;28;20032;-67
2023/07/08 13:03:02;;;;;;;7.85;4.55;;;31.60;95.30;;;;;;5111204;28;20046;-67
2023/07/08 13:05:28;;;;;;;6.45;3.80;;;31.70;95.80;;;;;;5107793;28;20032;-77